sensor_id;sensor_type;location;lat;lon;timestamp;pressure;altitude;pressure_sealevel;temperature;humidity
10909;BME280;5507;48.548;8.720;2022-12-07T00:01:37;71750.44;;;4.05;100.00
10909;BME280;5507;48.548;8.720;2022-12-07T00:04:07;71741.94;;;4.00;100.00
10909;BME280;5507;48.548;8.720;2022-12-07T00:06:35;71736.72;;;3.96;100.00
10909;BME280;5507;48.548;8.720;2022-12-07T00:09:00;71744.06;;;4.00;100.00
10909;BME280;5507;48.548;8.720;2022-12-07T00:11:26;71740.19;;;3.99;100.00
10909;BME280;5507;48.548;8.720;2022-12-07T00:13:54;71737.50;;;3.99;100.00
10909;BME280;5507;48.548;8.720;2022-12-07T00:16:21;71742.75;;;4.03;100.00
10909;BME280;5507;48.548;8.720;2022-12-07T00:18:47;71744.47;;;4.05;100.00
10909;BME280;5507;48.548;8.720;2022-12-07T00:21:15;71743.31;;;4.04;100.00
10909;BME280;5507;48.548;8.720;2022-12-07T00:23:42;71743.09;;;4.01;100.00
10909;BME280;5507;48.548;8.720;2022-12-07T00:26:10;71745.06;;;4.05;100.00
10909;BME280;5507;48.548;8.720;2022-12-07T00:28:36;71740.41;;;4.01;100.00
10909;BME280;5507;48.548;8.720;2022-12-07T00:31:07;71737.72;;;4.01;100.00
10909;BME280;5507;48.548;8.720;2022-12-07T00:33:34;71735.75;;;3.97;100.00
10909;BME280;5507;48.548;8.720;2022-12-07T00:36:00;71735.16;;;3.97;100.00
10909;BME280;5507;48.548;8.720;2022-12-07T00:38:28;71738.09;;;3.99;100.00
10909;BME280;5507;48.548;8.720;2022-12-07T00:41:15;71743.69;;;4.02;100.00
10909;BME280;5507;48.548;8.720;2022-12-07T00:43:42;71739.03;;;3.98;100.00
10909;BME280;5507;48.548;8.720;2022-12-07T00:46:08;71735.16;;;3.97;100.00
10909;BME280;5507;48.548;8.720;2022-12-07T00:48:34;71734.38;;;3.94;100.00
10909;BME280;5507;48.548;8.720;2022-12-07T00:50:59;71732.25;;;3.94;100.00
10909;BME280;5507;48.548;8.720;2022-12-07T00:53:26;71735.75;;;3.97;100.00
10909;BME280;5507;48.548;8.720;2022-12-07T00:55:51;71736.72;;;3.96;100.00
10909;BME280;5507;48.548;8.720;2022-12-07T00:58:18;71739.03;;;3.98;100.00
10909;BME280;5507;48.548;8.720;2022-12-07T01:00:43;71738.09;;;3.99;100.00
10909;BME280;5507;48.548;8.720;2022-12-07T01:03:11;71741.13;;;3.97;100.00
10909;BME280;5507;48.548;8.720;2022-12-07T01:05:36;71736.13;;;3.95;100.00
10909;BME280;5507;48.548;8.720;2022-12-07T01:08:02;71731.69;;;3.94;100.00
10909;BME280;5507;48.548;8.720;2022-12-07T01:10:27;71735.34;;;3.92;100.00
10909;BME280;5507;48.548;8.720;2022-12-07T01:12:53;71732.06;;;3.92;100.00
10909;BME280;5507;48.548;8.720;2022-12-07T01:15:19;71732.84;;;3.95;100.00
10909;BME280;5507;48.548;8.720;2022-12-07T01:17:44;71735.34;;;3.92;100.00
10909;BME280;5507;48.548;8.720;2022-12-07T01:20:10;71736.13;;;3.95;100.00
10909;BME280;5507;48.548;8.720;2022-12-07T01:22:39;71724.91;;;3.90;100.00
10909;BME280;5507;48.548;8.720;2022-12-07T01:25:07;71734.53;;;3.89;100.00
10909;BME280;5507;48.548;8.720;2022-12-07T01:27:34;71730.69;;;3.88;100.00
10909;BME280;5507;48.548;8.720;2022-12-07T01:29:59;71730.88;;;3.91;100.00
10909;BME280;5507;48.548;8.720;2022-12-07T01:32:25;71723.16;;;3.89;100.00
10909;BME280;5507;48.548;8.720;2022-12-07T01:34:52;71722.16;;;3.83;100.00
10909;BME280;5507;48.548;8.720;2022-12-07T01:37:17;71716.56;;;3.81;100.00
10909;BME280;5507;48.548;8.720;2022-12-07T01:39:42;71717.16;;;3.81;100.00
10909;BME280;5507;48.548;8.720;2022-12-07T01:42:11;71723.34;;;3.84;100.00
10909;BME280;5507;48.548;8.720;2022-12-07T01:47:41;71727.75;;;3.86;100.00
10909;BME280;5507;48.548;8.720;2022-12-07T01:50:08;71719.84;;;3.81;100.00
10909;BME280;5507;48.548;8.720;2022-12-07T01:52:34;71718.91;;;3.83;100.00
10909;BME280;5507;48.548;8.720;2022-12-07T01:55:04;71731.63;;;3.87;100.00
10909;BME280;5507;48.548;8.720;2022-12-07T01:57:31;71716.19;;;3.83;100.00
10909;BME280;5507;48.548;8.720;2022-12-07T01:59:58;71721.59;;;3.83;100.00
10909;BME280;5507;48.548;8.720;2022-12-07T02:02:28;71722.16;;;3.83;100.00
10909;BME280;5507;48.548;8.720;2022-12-07T02:04:57;71725.44;;;3.84;100.00
10909;BME280;5507;48.548;8.720;2022-12-07T02:07:23;71721.59;;;3.83;100.00
10909;BME280;5507;48.548;8.720;2022-12-07T02:09:50;71723.13;;;3.82;100.00
10909;BME280;5507;48.548;8.720;2022-12-07T02:12:15;71714.41;;;3.74;100.00
10909;BME280;5507;48.548;8.720;2022-12-07T02:14:41;71713.06;;;3.78;100.00
10909;BME280;5507;48.548;8.720;2022-12-07T02:20:30;71719.84;;;3.81;100.00
10909;BME280;5507;48.548;8.720;2022-12-07T02:23:27;71716.94;;;3.79;100.00
10909;BME280;5507;48.548;8.720;2022-12-07T02:31:30;71710.91;;;3.71;100.00
10909;BME280;5507;48.548;8.720;2022-12-07T02:34:11;71708.81;;;3.71;100.00
10909;BME280;5507;48.548;8.720;2022-12-07T02:36:43;71715.56;;;3.75;100.00
10909;BME280;5507;48.548;8.720;2022-12-07T02:39:18;71713.03;;;3.70;100.00
10909;BME280;5507;48.548;8.720;2022-12-07T02:41:56;71709.94;;;3.72;100.00
10909;BME280;5507;48.548;8.720;2022-12-07T02:44:26;71701.47;;;3.67;100.00
10909;BME280;5507;48.548;8.720;2022-12-07T02:46:55;71705.31;;;3.68;100.00
10909;BME280;5507;48.548;8.720;2022-12-07T02:49:23;71708.66;;;3.76;100.00
10909;BME280;5507;48.548;8.720;2022-12-07T02:51:50;71709.75;;;3.70;100.00
10909;BME280;5507;48.548;8.720;2022-12-07T02:54:19;71707.44;;;3.68;100.00
10909;BME280;5507;48.548;8.720;2022-12-07T03:10:21;71697.97;;;3.64;100.00
10909;BME280;5507;48.548;8.720;2022-12-07T03:13:12;71696.00;;;3.60;100.00
10909;BME280;5507;48.548;8.720;2022-12-07T03:15:53;71695.44;;;3.60;100.00
10909;BME280;5507;48.548;8.720;2022-12-07T03:18:24;71697.53;;;3.59;100.00
10909;BME280;5507;48.548;8.720;2022-12-07T03:20:53;71689.25;;;3.57;100.00
10909;BME280;5507;48.548;8.720;2022-12-07T03:23:20;71688.44;;;3.54;100.00
10909;BME280;5507;48.548;8.720;2022-12-07T03:25:50;71693.31;;;3.60;100.00
10909;BME280;5507;48.548;8.720;2022-12-07T03:28:19;71695.44;;;3.60;100.00
10909;BME280;5507;48.548;8.720;2022-12-07T03:30:53;71691.56;;;3.59;100.00
10909;BME280;5507;48.548;8.720;2022-12-07T03:33:42;71694.63;;;3.57;100.00
10909;BME280;5507;48.548;8.720;2022-12-07T03:36:19;71693.69;;;3.58;100.00
10909;BME280;5507;48.548;8.720;2022-12-07T03:38:55;71688.44;;;3.54;100.00
10909;BME280;5507;48.548;8.720;2022-12-07T03:41:29;71685.19;;;3.53;100.00
10909;BME280;5507;48.548;8.720;2022-12-07T03:43:56;71683.81;;;3.50;100.00
10909;BME280;5507;48.548;8.720;2022-12-07T03:46:36;71686.69;;;3.52;100.00
10909;BME280;5507;48.548;8.720;2022-12-07T03:54:34;71679.72;;;3.46;100.00
10909;BME280;5507;48.548;8.720;2022-12-07T03:57:02;71664.84;;;3.36;100.00
10909;BME280;5507;48.548;8.720;2022-12-07T03:59:30;71669.84;;;3.38;100.00
10909;BME280;5507;48.548;8.720;2022-12-07T04:01:57;71676.25;;;3.43;100.00
10909;BME280;5507;48.548;8.720;2022-12-07T04:04:26;71672.97;;;3.43;100.00
10909;BME280;5507;48.548;8.720;2022-12-07T04:06:51;71671.81;;;3.42;100.00
10909;BME280;5507;48.548;8.720;2022-12-07T04:09:17;71663.69;;;3.35;100.00
10909;BME280;5507;48.548;8.720;2022-12-07T04:11:43;71668.69;;;3.37;100.00
10909;BME280;5507;48.548;8.720;2022-12-07T04:14:08;71668.69;;;3.37;100.00
10909;BME280;5507;48.548;8.720;2022-12-07T04:16:43;71671.59;;;3.39;100.00
10909;BME280;5507;48.548;8.720;2022-12-07T04:19:09;71670.44;;;3.38;100.00
10909;BME280;5507;48.548;8.720;2022-12-07T04:21:34;71665.41;;;3.36;100.00
10909;BME280;5507;48.548;8.720;2022-12-07T04:24:00;71667.16;;;3.38;100.00
10909;BME280;5507;48.548;8.720;2022-12-07T04:26:25;71664.63;;;3.33;100.00
10909;BME280;5507;48.548;8.720;2022-12-07T04:28:50;71669.50;;;3.40;100.00
10909;BME280;5507;48.548;8.720;2022-12-07T04:31:16;71665.41;;;3.36;100.00
10909;BME280;5507;48.548;8.720;2022-12-07T04:33:41;71662.31;;;3.31;100.00
10909;BME280;5507;48.548;8.720;2022-12-07T04:36:07;71666.72;;;3.33;100.00
10909;BME280;5507;48.548;8.720;2022-12-07T04:38:32;71664.41;;;3.31;100.00
10909;BME280;5507;48.548;8.720;2022-12-07T04:40:57;71654.97;;;3.27;100.00
10909;BME280;5507;48.548;8.720;2022-12-07T04:43:23;71650.66;;;3.21;100.00
10909;BME280;5507;48.548;8.720;2022-12-07T04:45:48;71658.59;;;3.25;100.00
10909;BME280;5507;48.548;8.720;2022-12-07T04:48:14;71651.63;;;3.19;100.00
10909;BME280;5507;48.548;8.720;2022-12-07T04:50:40;71646.81;;;3.20;100.00
10909;BME280;5507;48.548;8.720;2022-12-07T04:53:05;71646.03;;;3.17;100.00
10909;BME280;5507;48.548;8.720;2022-12-07T04:55:30;71633.09;;;3.10;100.00
10909;BME280;5507;48.548;8.720;2022-12-07T04:57:55;71628.59;;;3.02;100.00
10909;BME280;5507;48.548;8.720;2022-12-07T05:00:21;71618.72;;;2.93;100.00
10909;BME280;5507;48.548;8.720;2022-12-07T05:02:46;71596.06;;;2.73;100.00
10909;BME280;5507;48.548;8.720;2022-12-07T05:05:11;71576.31;;;2.56;100.00
10909;BME280;5507;48.548;8.720;2022-12-07T05:07:37;71557.38;;;2.42;100.00
10909;BME280;5507;48.548;8.720;2022-12-07T05:10:02;71542.63;;;2.27;100.00
10909;BME280;5507;48.548;8.720;2022-12-07T05:12:27;71536.03;;;2.19;100.00
10909;BME280;5507;48.548;8.720;2022-12-07T05:14:53;71518.13;;;2.10;100.00
10909;BME280;5507;48.548;8.720;2022-12-07T05:17:18;71509.19;;;2.00;100.00
10909;BME280;5507;48.548;8.720;2022-12-07T05:19:43;71495.25;;;1.88;100.00
10909;BME280;5507;48.548;8.720;2022-12-07T05:22:09;71491.78;;;1.85;100.00
10909;BME280;5507;48.548;8.720;2022-12-07T05:24:34;71483.66;;;1.78;100.00
10909;BME280;5507;48.548;8.720;2022-12-07T05:27:00;71472.03;;;1.68;100.00
10909;BME280;5507;48.548;8.720;2022-12-07T05:29:25;71460.66;;;1.60;100.00
10909;BME280;5507;48.548;8.720;2022-12-07T05:31:50;71459.28;;;1.57;100.00
10909;BME280;5507;48.548;8.720;2022-12-07T05:34:17;71456.16;;;1.52;100.00
10909;BME280;5507;48.548;8.720;2022-12-07T05:36:42;71445.34;;;1.45;100.00
10909;BME280;5507;48.548;8.720;2022-12-07T05:39:08;71437.25;;;1.37;100.00
10909;BME280;5507;48.548;8.720;2022-12-07T05:41:33;71427.16;;;1.26;100.00
10909;BME280;5507;48.548;8.720;2022-12-07T05:44:17;71422.16;;;1.24;100.00
10909;BME280;5507;48.548;8.720;2022-12-07T05:46:42;71414.25;;;1.20;100.00
10909;BME280;5507;48.548;8.720;2022-12-07T05:49:07;71413.22;;;1.14;100.00
10909;BME280;5507;48.548;8.720;2022-12-07T05:51:33;71408.25;;;1.12;100.00
10909;BME280;5507;48.548;8.720;2022-12-07T05:53:58;71400.34;;;1.08;100.00
10909;BME280;5507;48.548;8.720;2022-12-07T05:56:23;71397.59;;;1.01;100.00
10909;BME280;5507;48.548;8.720;2022-12-07T05:58:49;71397.22;;;1.03;100.00
10909;BME280;5507;48.548;8.720;2022-12-07T06:01:33;71390.25;;;0.97;100.00
10909;BME280;5507;48.548;8.720;2022-12-07T06:03:58;71382.13;;;0.89;100.00
10909;BME280;5507;48.548;8.720;2022-12-07T06:06:24;71378.06;;;0.86;100.00
10909;BME280;5507;48.548;8.720;2022-12-07T06:08:49;71380.53;;;0.83;100.00
10909;BME280;5507;48.548;8.720;2022-12-07T06:11:14;71369.97;;;0.79;100.00
10909;BME280;5507;48.548;8.720;2022-12-07T06:13:58;71361.84;;;0.72;100.00
10909;BME280;5507;48.548;8.720;2022-12-07T06:16:23;71360.09;;;0.70;100.00
10909;BME280;5507;48.548;8.720;2022-12-07T06:18:49;71354.53;;;0.68;100.00
10909;BME280;5507;48.548;8.720;2022-12-07T06:21:14;71353.75;;;0.65;100.00
10909;BME280;5507;48.548;8.720;2022-12-07T06:23:39;71352.34;;;0.61;100.00
10909;BME280;5507;48.548;8.720;2022-12-07T06:26:05;71346.97;;;0.61;100.00
10909;BME280;5507;48.548;8.720;2022-12-07T06:28:30;71347.34;;;0.59;100.00
10909;BME280;5507;48.548;8.720;2022-12-07T06:31:02;71349.31;;;0.63;100.00
10909;BME280;5507;48.548;8.720;2022-12-07T06:33:27;71354.28;;;0.65;100.00
10909;BME280;5507;48.548;8.720;2022-12-07T06:35:53;71359.16;;;0.72;100.00
10909;BME280;5507;48.548;8.720;2022-12-07T06:38:19;71357.06;;;0.72;100.00
10909;BME280;5507;48.548;8.720;2022-12-07T06:40:44;71366.47;;;0.76;100.00
10909;BME280;5507;48.548;8.720;2022-12-07T06:43:09;71370.69;;;0.75;100.00
10909;BME280;5507;48.548;8.720;2022-12-07T06:45:35;71366.47;;;0.76;100.00
10909;BME280;5507;48.548;8.720;2022-12-07T06:48:00;71375.19;;;0.83;100.00
10909;BME280;5507;48.548;8.720;2022-12-07T06:50:26;71372.28;;;0.81;100.00
10909;BME280;5507;48.548;8.720;2022-12-07T06:52:51;71376.94;;;0.85;100.00
10909;BME280;5507;48.548;8.720;2022-12-07T06:55:16;71379.81;;;0.87;100.00
10909;BME280;5507;48.548;8.720;2022-12-07T06:57:42;71379.81;;;0.87;100.00
10909;BME280;5507;48.548;8.720;2022-12-07T07:00:08;71391.06;;;1.00;100.00
10909;BME280;5507;48.548;8.720;2022-12-07T07:02:33;71392.56;;;0.99;100.00
10909;BME280;5507;48.548;8.720;2022-12-07T07:04:59;71403.00;;;1.08;100.00
10909;BME280;5507;48.548;8.720;2022-12-07T07:07:25;71397.78;;;1.03;100.00
10909;BME280;5507;48.548;8.720;2022-12-07T07:09:50;71405.31;;;1.10;100.00
10909;BME280;5507;48.548;8.720;2022-12-07T07:12:16;71403.94;;;1.06;100.00
10909;BME280;5507;48.548;8.720;2022-12-07T07:14:41;71408.81;;;1.13;100.00
10909;BME280;5507;48.548;8.720;2022-12-07T07:17:07;71414.97;;;1.16;100.00
10909;BME280;5507;48.548;8.720;2022-12-07T07:19:32;71418.25;;;1.16;100.00
10909;BME280;5507;48.548;8.720;2022-12-07T07:21:57;71423.09;;;1.23;100.00
10909;BME280;5507;48.548;8.720;2022-12-07T07:24:23;71425.63;;;1.27;100.00
10909;BME280;5507;48.548;8.720;2022-12-07T07:26:48;71419.63;;;1.20;100.00
10909;BME280;5507;48.548;8.720;2022-12-07T07:29:13;71429.47;;;1.28;100.00
10909;BME280;5507;48.548;8.720;2022-12-07T07:31:38;71431.78;;;1.30;100.00
10909;BME280;5507;48.548;8.720;2022-12-07T07:34:04;71440.28;;;1.35;100.00
10909;BME280;5507;48.548;8.720;2022-12-07T07:36:29;71447.81;;;1.42;100.00
10909;BME280;5507;48.548;8.720;2022-12-07T07:38:54;71445.34;;;1.45;100.00
10909;BME280;5507;48.548;8.720;2022-12-07T07:41:20;71455.22;;;1.53;100.00
10909;BME280;5507;48.548;8.720;2022-12-07T07:43:45;71450.22;;;1.51;100.00
10909;BME280;5507;48.548;8.720;2022-12-07T07:46:10;71463.34;;;1.60;100.00
10909;BME280;5507;48.548;8.720;2022-12-07T07:48:36;71475.53;;;1.71;100.00
10909;BME280;5507;48.548;8.720;2022-12-07T07:51:05;71479.94;;;1.72;100.00
10909;BME280;5507;48.548;8.720;2022-12-07T07:53:31;71489.25;;;1.80;100.00
10909;BME280;5507;48.548;8.720;2022-12-07T07:55:56;71470.53;;;1.69;100.00
10909;BME280;5507;48.548;8.720;2022-12-07T07:58:21;71479.94;;;1.72;100.00
10909;BME280;5507;48.548;8.720;2022-12-07T08:00:47;71491.56;;;1.82;100.00
10909;BME280;5507;48.548;8.720;2022-12-07T08:03:12;71491.56;;;1.82;100.00
10909;BME280;5507;48.548;8.720;2022-12-07T08:05:38;71503.75;;;1.93;100.00
10909;BME280;5507;48.548;8.720;2022-12-07T08:08:03;71504.19;;;1.98;100.00
10909;BME280;5507;48.548;8.720;2022-12-07T08:10:29;71515.94;;;2.04;100.00
10909;BME280;5507;48.548;8.720;2022-12-07T08:12:54;71529.88;;;2.16;100.00
10909;BME280;5507;48.548;8.720;2022-12-07T08:15:40;71539.88;;;2.20;100.00
10909;BME280;5507;48.548;8.720;2022-12-07T08:18:06;71537.63;;;2.25;100.00
10909;BME280;5507;48.548;8.720;2022-12-07T08:20:32;71536.47;;;2.24;100.00
10909;BME280;5507;48.548;8.720;2022-12-07T08:22:58;71542.63;;;2.27;100.00
10909;BME280;5507;48.548;8.720;2022-12-07T08:25:23;71537.44;;;2.22;100.00
10909;BME280;5507;48.548;8.720;2022-12-07T08:27:49;71554.69;;;2.42;100.00
10909;BME280;5507;48.548;8.720;2022-12-07T08:30:14;71548.09;;;2.34;100.00
10909;BME280;5507;48.548;8.720;2022-12-07T08:32:40;71560.84;;;2.45;100.00
10909;BME280;5507;48.548;8.720;2022-12-07T08:35:06;71574.94;;;2.53;100.00
10909;BME280;5507;48.548;8.720;2022-12-07T08:37:32;71585.84;;;2.67;100.00
10909;BME280;5507;48.548;8.720;2022-12-07T08:39:58;71582.91;;;2.64;100.00
10909;BME280;5507;48.548;8.720;2022-12-07T08:42:23;71591.22;;;2.67;100.00
10909;BME280;5507;48.548;8.720;2022-12-07T08:44:53;71598.16;;;2.73;100.00
10909;BME280;5507;48.548;8.720;2022-12-07T08:47:18;71602.09;;;2.81;100.00
10909;BME280;5507;48.548;8.720;2022-12-07T08:49:46;71609.06;;;2.87;100.00
10909;BME280;5507;48.548;8.720;2022-12-07T08:52:12;71599.78;;;2.79;100.00
10909;BME280;5507;48.548;8.720;2022-12-07T08:54:39;71624.16;;;3.00;100.00
10909;BME280;5507;48.548;8.720;2022-12-07T08:57:05;71634.03;;;3.09;100.00
10909;BME280;5507;48.548;8.720;2022-12-07T08:59:33;71643.34;;;3.17;100.00
10909;BME280;5507;48.548;8.720;2022-12-07T09:02:00;71665.78;;;3.34;100.00
10909;BME280;5507;48.548;8.720;2022-12-07T09:04:25;71644.84;;;3.16;100.00
10909;BME280;5507;48.548;8.720;2022-12-07T09:06:51;71647.41;;;3.20;100.00
10909;BME280;5507;48.548;8.720;2022-12-07T09:09:16;71664.84;;;3.36;100.00
10909;BME280;5507;48.548;8.720;2022-12-07T09:11:42;71668.69;;;3.37;100.00
10909;BME280;5507;48.548;8.720;2022-12-07T09:14:07;71661.72;;;3.31;100.00
10909;BME280;5507;48.548;8.720;2022-12-07T09:16:33;71682.44;;;3.46;100.00
10909;BME280;5507;48.548;8.720;2022-12-07T09:18:58;71688.09;;;3.56;100.00
10909;BME280;5507;48.548;8.720;2022-12-07T09:21:23;71684.00;;;3.52;100.00
10909;BME280;5507;48.548;8.720;2022-12-07T09:23:49;71706.25;;;3.67;100.00
10909;BME280;5507;48.548;8.720;2022-12-07T09:26:14;71729.53;;;3.87;100.00
10909;BME280;5507;48.548;8.720;2022-12-07T09:28:39;71767.53;;;4.22;100.00
10909;BME280;5507;48.548;8.720;2022-12-07T09:31:05;71760.56;;;4.16;100.00
10909;BME280;5507;48.548;8.720;2022-12-07T09:33:31;71786.28;;;4.34;100.00
10909;BME280;5507;48.548;8.720;2022-12-07T09:35:56;71809.78;;;4.57;100.00
10909;BME280;5507;48.548;8.720;2022-12-07T09:38:21;71798.72;;;4.47;100.00
10909;BME280;5507;48.548;8.720;2022-12-07T09:40:47;71799.91;;;4.48;100.00
10909;BME280;5507;48.548;8.720;2022-12-07T09:43:15;71796.47;;;4.52;100.00
10909;BME280;5507;48.548;8.720;2022-12-07T09:45:41;71821.63;;;4.69;100.00
10909;BME280;5507;48.548;8.720;2022-12-07T09:48:24;71813.47;;;4.62;100.00
10909;BME280;5507;48.548;8.720;2022-12-07T09:50:52;71827.44;;;4.75;100.00
10909;BME280;5507;48.548;8.720;2022-12-07T09:53:34;71794.50;;;4.48;100.00
10909;BME280;5507;48.548;8.720;2022-12-07T09:56:01;71800.31;;;4.53;100.00
10909;BME280;5507;48.548;8.720;2022-12-07T09:58:28;71816.97;;;4.65;100.00
10909;BME280;5507;48.548;8.720;2022-12-07T10:01:00;71830.38;;;4.77;100.00
10909;BME280;5507;48.548;8.720;2022-12-07T10:03:29;71825.72;;;4.73;100.00
10909;BME280;5507;48.548;8.720;2022-12-07T10:05:55;71824.91;;;4.70;100.00
10909;BME280;5507;48.548;8.720;2022-12-07T10:08:21;71822.78;;;4.70;100.00
10909;BME280;5507;48.548;8.720;2022-12-07T10:10:51;71835.59;;;4.82;100.00
10909;BME280;5507;48.548;8.720;2022-12-07T10:13:20;71852.47;;;4.96;100.00
10909;BME280;5507;48.548;8.720;2022-12-07T10:18:41;71881.00;;;5.21;100.00
10909;BME280;5507;48.548;8.720;2022-12-07T10:21:16;71863.31;;;5.03;100.00
10909;BME280;5507;48.548;8.720;2022-12-07T10:26:50;71903.13;;;5.40;100.00
10909;BME280;5507;48.548;8.720;2022-12-07T10:29:28;71920.00;;;5.55;100.00
10909;BME280;5507;48.548;8.720;2022-12-07T10:34:39;71900.41;;;5.40;100.00
10909;BME280;5507;48.548;8.720;2022-12-07T10:39:51;71941.53;;;5.74;100.00
10909;BME280;5507;48.548;8.720;2022-12-07T10:42:24;71949.50;;;5.78;100.00
10909;BME280;5507;48.548;8.720;2022-12-07T10:45:09;71940.00;;;5.75;100.00
10909;BME280;5507;48.548;8.720;2022-12-07T10:47:48;71921.16;;;5.56;100.00
10909;BME280;5507;48.548;8.720;2022-12-07T10:53:26;71959.63;;;5.89;100.00
10909;BME280;5507;48.548;8.720;2022-12-07T10:56:13;71972.81;;;5.98;100.00
10909;BME280;5507;48.548;8.720;2022-12-07T11:02:09;71985.97;;;6.07;100.00
10909;BME280;5507;48.548;8.720;2022-12-07T11:05:02;71997.50;;;6.22;100.00
10909;BME280;5507;48.548;8.720;2022-12-07T11:07:48;72006.81;;;6.30;100.00
10909;BME280;5507;48.548;8.720;2022-12-07T11:13:29;71985.25;;;6.12;100.00
10909;BME280;5507;48.548;8.720;2022-12-07T11:16:24;72012.22;;;6.30;99.29
10909;BME280;5507;48.548;8.720;2022-12-07T11:19:23;72012.41;;;6.33;100.00
10909;BME280;5507;48.548;8.720;2022-12-07T11:24:36;72029.69;;;6.45;100.00
10909;BME280;5507;48.548;8.720;2022-12-07T11:35:45;72052.63;;;6.68;97.20
10909;BME280;5507;48.548;8.720;2022-12-07T11:38:17;72041.41;;;6.63;96.54
10909;BME280;5507;48.548;8.720;2022-12-07T11:40:48;72055.91;;;6.68;98.66
10909;BME280;5507;48.548;8.720;2022-12-07T11:43:34;72061.19;;;6.80;98.84
10909;BME280;5507;48.548;8.720;2022-12-07T11:46:04;72072.44;;;6.85;99.63
10909;BME280;5507;48.548;8.720;2022-12-07T11:48:42;72091.47;;;6.99;99.16
10909;BME280;5507;48.548;8.720;2022-12-07T11:51:11;72093.22;;;7.00;97.21
10909;BME280;5507;48.548;8.720;2022-12-07T11:54:39;72081.41;;;6.95;99.88
10909;BME280;5507;48.548;8.720;2022-12-07T11:56:35;72056.72;;;6.71;97.44
10909;BME280;5507;48.548;8.720;2022-12-07T11:59:10;72049.34;;;6.67;97.29
10909;BME280;5507;48.548;8.720;2022-12-07T12:06:38;72015.91;;;6.36;99.28
10909;BME280;5507;48.548;8.720;2022-12-07T12:09:13;71998.06;;;6.23;100.00
10909;BME280;5507;48.548;8.720;2022-12-07T12:12:06;72008.69;;;6.27;100.00
10909;BME280;5507;48.548;8.720;2022-12-07T12:20:40;71989.31;;;6.15;100.00
10909;BME280;5507;48.548;8.720;2022-12-07T12:23:34;71988.94;;;6.17;100.00
10909;BME280;5507;48.548;8.720;2022-12-07T12:26:06;72002.50;;;6.24;100.00
10909;BME280;5507;48.548;8.720;2022-12-07T12:28:41;72006.22;;;6.30;100.00
10909;BME280;5507;48.548;8.720;2022-12-07T12:31:28;72012.06;;;6.35;100.00
10909;BME280;5507;48.548;8.720;2022-12-07T12:34:00;72010.66;;;6.31;100.00
10909;BME280;5507;48.548;8.720;2022-12-07T12:36:42;71993.81;;;6.24;100.00
10909;BME280;5507;48.548;8.720;2022-12-07T12:46:56;72000.19;;;6.22;100.00
10909;BME280;5507;48.548;8.720;2022-12-07T12:54:21;71985.63;;;6.09;100.00
10909;BME280;5507;48.548;8.720;2022-12-07T12:59:31;71978.25;;;6.05;100.00
10909;BME280;5507;48.548;8.720;2022-12-07T13:31:39;71958.44;;;5.88;100.00
10909;BME280;5507;48.548;8.720;2022-12-07T13:37:12;71947.34;;;5.79;100.00
10909;BME280;5507;48.548;8.720;2022-12-07T13:39:54;71956.69;;;5.87;100.00
10909;BME280;5507;48.548;8.720;2022-12-07T13:42:28;71965.22;;;5.92;100.00
10909;BME280;5507;48.548;8.720;2022-12-07T13:44:54;71966.97;;;5.93;100.00
10909;BME280;5507;48.548;8.720;2022-12-07T13:47:47;71933.38;;;5.67;100.00
10909;BME280;5507;48.548;8.720;2022-12-07T13:50:25;71914.53;;;5.48;100.00
10909;BME280;5507;48.548;8.720;2022-12-07T13:52:55;71909.72;;;5.48;100.00
10909;BME280;5507;48.548;8.720;2022-12-07T13:55:21;71918.63;;;5.51;100.00
10909;BME280;5507;48.548;8.720;2022-12-07T13:57:50;71911.63;;;5.45;100.00
10909;BME280;5507;48.548;8.720;2022-12-07T14:00:24;71919.19;;;5.52;100.00
10909;BME280;5507;48.548;8.720;2022-12-07T14:05:27;71903.84;;;5.36;100.00
10909;BME280;5507;48.548;8.720;2022-12-07T14:08:20;71899.25;;;5.39;100.00
10909;BME280;5507;48.548;8.720;2022-12-07T14:10:54;71899.03;;;5.37;100.00
10909;BME280;5507;48.548;8.720;2022-12-07T14:13:31;71906.25;;;5.45;100.00
10909;BME280;5507;48.548;8.720;2022-12-07T14:16:00;71900.63;;;5.43;100.00
10909;BME280;5507;48.548;8.720;2022-12-07T14:18:36;71901.75;;;5.37;100.00
10909;BME280;5507;48.548;8.720;2022-12-07T14:21:14;71874.78;;;5.18;100.00
10909;BME280;5507;48.548;8.720;2022-12-07T14:23:41;71885.44;;;5.23;100.00
10909;BME280;5507;48.548;8.720;2022-12-07T14:28:39;71896.13;;;5.34;100.00
10909;BME280;5507;48.548;8.720;2022-12-07T14:31:15;71880.41;;;5.21;100.00
10909;BME280;5507;48.548;8.720;2022-12-07T14:33:41;71885.66;;;5.25;100.00
10909;BME280;5507;48.548;8.720;2022-12-07T14:36:14;71904.63;;;5.39;100.00
10909;BME280;5507;48.548;8.720;2022-12-07T14:38:39;71898.81;;;5.34;100.00
10909;BME280;5507;48.548;8.720;2022-12-07T14:41:12;71898.25;;;5.34;100.00
10909;BME280;5507;48.548;8.720;2022-12-07T14:43:56;71896.50;;;5.32;100.00
10909;BME280;5507;48.548;8.720;2022-12-07T14:46:22;71907.34;;;5.39;100.00
10909;BME280;5507;48.548;8.720;2022-12-07T14:48:47;71891.25;;;5.28;100.00
10909;BME280;5507;48.548;8.720;2022-12-07T14:51:13;71877.47;;;5.18;100.00
10909;BME280;5507;48.548;8.720;2022-12-07T14:53:44;71863.31;;;5.03;100.00
10909;BME280;5507;48.548;8.720;2022-12-07T14:56:11;71852.31;;;5.01;100.00
10909;BME280;5507;48.548;8.720;2022-12-07T14:58:36;71845.84;;;4.88;100.00
10909;BME280;5507;48.548;8.720;2022-12-07T15:01:02;71854.19;;;4.98;100.00
10909;BME280;5507;48.548;8.720;2022-12-07T15:03:27;71859.44;;;5.02;100.00
10909;BME280;5507;48.548;8.720;2022-12-07T15:05:53;71842.56;;;4.88;100.00
10909;BME280;5507;48.548;8.720;2022-12-07T15:08:18;71841.78;;;4.85;100.00
10909;BME280;5507;48.548;8.720;2022-12-07T15:10:43;71838.28;;;4.82;100.00
10909;BME280;5507;48.548;8.720;2022-12-07T15:13:09;71835.75;;;4.77;100.00
10909;BME280;5507;48.548;8.720;2022-12-07T15:15:54;71833.63;;;4.78;100.00
10909;BME280;5507;48.548;8.720;2022-12-07T15:18:20;71825.13;;;4.73;100.00
10909;BME280;5507;48.548;8.720;2022-12-07T15:20:46;71816.59;;;4.67;100.00
10909;BME280;5507;48.548;8.720;2022-12-07T15:23:11;71822.00;;;4.67;100.00
10909;BME280;5507;48.548;8.720;2022-12-07T15:25:40;71812.31;;;4.61;100.00
10909;BME280;5507;48.548;8.720;2022-12-07T15:28:06;71795.44;;;4.47;100.00
10909;BME280;5507;48.548;8.720;2022-12-07T15:30:31;71795.81;;;4.45;100.00